Terminal Aerodrome Forecast
Issued by NWS Portland, OR

Home | Current Version | Previous Version | Text Only | Print | Product List | Glossary On
Versions: 1 2 3 4 5 6 7 8 9 10 11 12 13 14 15 16
000
FTUS46 KPQR 290530
TAFEUG
TAF
KEUG 290530Z 2906/3006 32007KT P6SM FEW035
     FM291400 VRB03KT P6SM BKN020
     FM291700 34007KT P6SM FEW025 SCT050=

USA.gov is the U.S. government's official web portal to all federal, state and local government web resources and services.